sensor_id;sensor_type;location;lat;lon;timestamp;P1;durP1;ratioP1;P2;durP2;ratioP2
9160;SDS011;4615;51.340;8.288;2024-01-15T00:02:22;10.18;;;9.18;;
9160;SDS011;4615;51.340;8.288;2024-01-15T00:04:48;10.38;;;9.27;;
9160;SDS011;4615;51.340;8.288;2024-01-15T00:07:16;11.43;;;10.07;;
9160;SDS011;4615;51.340;8.288;2024-01-15T00:09:43;11.27;;;10.07;;
9160;SDS011;4615;51.340;8.288;2024-01-15T00:12:09;11.60;;;10.20;;
9160;SDS011;4615;51.340;8.288;2024-01-15T00:14:36;12.07;;;10.38;;
9160;SDS011;4615;51.340;8.288;2024-01-15T00:17:02;12.73;;;11.20;;
9160;SDS011;4615;51.340;8.288;2024-01-15T00:19:28;12.93;;;11.15;;
9160;SDS011;4615;51.340;8.288;2024-01-15T00:21:57;14.05;;;11.77;;
9160;SDS011;4615;51.340;8.288;2024-01-15T00:24:25;13.52;;;11.30;;
9160;SDS011;4615;51.340;8.288;2024-01-15T00:26:51;13.60;;;11.75;;
9160;SDS011;4615;51.340;8.288;2024-01-15T00:29:18;13.10;;;11.70;;
9160;SDS011;4615;51.340;8.288;2024-01-15T00:31:44;13.15;;;11.55;;
9160;SDS011;4615;51.340;8.288;2024-01-15T00:34:11;13.18;;;11.60;;
9160;SDS011;4615;51.340;8.288;2024-01-15T00:36:37;13.00;;;11.10;;
9160;SDS011;4615;51.340;8.288;2024-01-15T00:39:03;12.05;;;10.85;;
9160;SDS011;4615;51.340;8.288;2024-01-15T00:41:32;11.33;;;10.13;;
9160;SDS011;4615;51.340;8.288;2024-01-15T00:43:58;12.13;;;10.73;;
9160;SDS011;4615;51.340;8.288;2024-01-15T00:46:24;11.38;;;10.20;;
9160;SDS011;4615;51.340;8.288;2024-01-15T00:48:51;11.65;;;10.45;;
9160;SDS011;4615;51.340;8.288;2024-01-15T00:51:17;11.48;;;10.30;;
9160;SDS011;4615;51.340;8.288;2024-01-15T00:53:44;10.90;;;9.77;;
9160;SDS011;4615;51.340;8.288;2024-01-15T00:56:10;11.15;;;9.95;;
9160;SDS011;4615;51.340;8.288;2024-01-15T00:58:38;10.77;;;9.65;;
9160;SDS011;4615;51.340;8.288;2024-01-15T01:01:04;10.95;;;9.85;;
9160;SDS011;4615;51.340;8.288;2024-01-15T01:03:30;10.48;;;9.48;;
9160;SDS011;4615;51.340;8.288;2024-01-15T01:05:57;10.02;;;9.02;;
9160;SDS011;4615;51.340;8.288;2024-01-15T01:08:23;9.73;;;8.82;;
9160;SDS011;4615;51.340;8.288;2024-01-15T01:10:49;10.20;;;9.00;;
9160;SDS011;4615;51.340;8.288;2024-01-15T01:13:16;9.90;;;8.90;;
9160;SDS011;4615;51.340;8.288;2024-01-15T01:15:43;10.35;;;9.25;;
9160;SDS011;4615;51.340;8.288;2024-01-15T01:18:10;10.35;;;9.32;;
9160;SDS011;4615;51.340;8.288;2024-01-15T01:20:36;10.02;;;9.02;;
9160;SDS011;4615;51.340;8.288;2024-01-15T01:23:02;9.63;;;8.63;;
9160;SDS011;4615;51.340;8.288;2024-01-15T01:25:29;9.75;;;8.75;;
9160;SDS011;4615;51.340;8.288;2024-01-15T01:27:55;9.97;;;8.97;;
9160;SDS011;4615;51.340;8.288;2024-01-15T01:30:22;10.60;;;9.50;;
9160;SDS011;4615;51.340;8.288;2024-01-15T01:32:49;10.63;;;9.50;;
9160;SDS011;4615;51.340;8.288;2024-01-15T01:35:16;11.77;;;10.30;;
9160;SDS011;4615;51.340;8.288;2024-01-15T01:37:42;10.35;;;9.35;;
9160;SDS011;4615;51.340;8.288;2024-01-15T01:40:09;11.75;;;10.55;;
9160;SDS011;4615;51.340;8.288;2024-01-15T01:42:35;11.17;;;10.07;;
9160;SDS011;4615;51.340;8.288;2024-01-15T01:45:02;12.07;;;10.88;;
9160;SDS011;4615;51.340;8.288;2024-01-15T01:47:28;12.50;;;10.85;;
9160;SDS011;4615;51.340;8.288;2024-01-15T01:49:56;11.68;;;10.23;;
9160;SDS011;4615;51.340;8.288;2024-01-15T01:52:23;11.65;;;10.43;;
9160;SDS011;4615;51.340;8.288;2024-01-15T01:54:50;10.80;;;9.68;;
9160;SDS011;4615;51.340;8.288;2024-01-15T01:57:17;11.85;;;10.23;;
9160;SDS011;4615;51.340;8.288;2024-01-15T01:59:43;12.80;;;11.07;;
9160;SDS011;4615;51.340;8.288;2024-01-15T02:02:10;12.93;;;10.40;;
9160;SDS011;4615;51.340;8.288;2024-01-15T02:04:37;11.93;;;10.60;;
9160;SDS011;4615;51.340;8.288;2024-01-15T02:07:05;12.93;;;10.63;;
9160;SDS011;4615;51.340;8.288;2024-01-15T02:09:31;13.00;;;10.88;;
9160;SDS011;4615;51.340;8.288;2024-01-15T02:11:58;12.07;;;10.63;;
9160;SDS011;4615;51.340;8.288;2024-01-15T02:14:24;12.85;;;11.18;;
9160;SDS011;4615;51.340;8.288;2024-01-15T02:16:50;11.82;;;10.55;;
9160;SDS011;4615;51.340;8.288;2024-01-15T02:19:17;12.57;;;10.38;;
9160;SDS011;4615;51.340;8.288;2024-01-15T02:21:43;13.35;;;10.35;;
9160;SDS011;4615;51.340;8.288;2024-01-15T02:24:11;14.27;;;10.40;;
9160;SDS011;4615;51.340;8.288;2024-01-15T02:26:38;11.82;;;9.95;;
9160;SDS011;4615;51.340;8.288;2024-01-15T02:29:04;14.98;;;10.45;;
9160;SDS011;4615;51.340;8.288;2024-01-15T02:31:33;12.32;;;9.70;;
9160;SDS011;4615;51.340;8.288;2024-01-15T02:33:59;11.10;;;9.20;;
9160;SDS011;4615;51.340;8.288;2024-01-15T02:36:25;12.75;;;9.70;;
9160;SDS011;4615;51.340;8.288;2024-01-15T02:38:52;13.00;;;9.45;;
9160;SDS011;4615;51.340;8.288;2024-01-15T02:41:19;11.57;;;9.83;;
9160;SDS011;4615;51.340;8.288;2024-01-15T02:43:46;13.00;;;9.98;;
9160;SDS011;4615;51.340;8.288;2024-01-15T02:46:12;10.73;;;9.20;;
9160;SDS011;4615;51.340;8.288;2024-01-15T02:48:38;13.88;;;9.73;;
9160;SDS011;4615;51.340;8.288;2024-01-15T02:51:05;13.30;;;9.90;;
9160;SDS011;4615;51.340;8.288;2024-01-15T02:53:31;13.37;;;9.70;;
9160;SDS011;4615;51.340;8.288;2024-01-15T02:55:57;13.68;;;9.95;;
9160;SDS011;4615;51.340;8.288;2024-01-15T02:58:25;13.43;;;9.57;;
9160;SDS011;4615;51.340;8.288;2024-01-15T03:00:51;13.50;;;10.13;;
9160;SDS011;4615;51.340;8.288;2024-01-15T03:03:18;13.95;;;9.98;;
9160;SDS011;4615;51.340;8.288;2024-01-15T03:05:44;12.43;;;9.33;;
9160;SDS011;4615;51.340;8.288;2024-01-15T03:08:11;14.55;;;9.50;;
9160;SDS011;4615;51.340;8.288;2024-01-15T03:10:37;12.95;;;9.32;;
9160;SDS011;4615;51.340;8.288;2024-01-15T03:13:03;14.23;;;9.13;;
9160;SDS011;4615;51.340;8.288;2024-01-15T03:15:31;14.23;;;9.53;;
9160;SDS011;4615;51.340;8.288;2024-01-15T03:17:57;15.43;;;9.83;;
9160;SDS011;4615;51.340;8.288;2024-01-15T03:20:24;15.23;;;10.02;;
9160;SDS011;4615;51.340;8.288;2024-01-15T03:22:50;13.77;;;9.48;;
9160;SDS011;4615;51.340;8.288;2024-01-15T03:25:16;14.25;;;9.98;;
9160;SDS011;4615;51.340;8.288;2024-01-15T03:27:43;14.97;;;10.23;;
9160;SDS011;4615;51.340;8.288;2024-01-15T03:30:10;15.18;;;9.88;;
9160;SDS011;4615;51.340;8.288;2024-01-15T03:32:38;13.95;;;10.40;;
9160;SDS011;4615;51.340;8.288;2024-01-15T03:35:04;15.25;;;10.40;;
9160;SDS011;4615;51.340;8.288;2024-01-15T03:37:31;15.63;;;9.93;;
9160;SDS011;4615;51.340;8.288;2024-01-15T03:39:57;15.48;;;10.13;;
9160;SDS011;4615;51.340;8.288;2024-01-15T03:42:23;15.45;;;9.52;;
9160;SDS011;4615;51.340;8.288;2024-01-15T03:44:50;14.90;;;9.48;;
9160;SDS011;4615;51.340;8.288;2024-01-15T03:47:16;10.95;;;8.82;;
9160;SDS011;4615;51.340;8.288;2024-01-15T03:49:44;13.38;;;8.90;;
9160;SDS011;4615;51.340;8.288;2024-01-15T03:52:10;14.47;;;8.93;;
9160;SDS011;4615;51.340;8.288;2024-01-15T03:54:37;15.38;;;8.70;;
9160;SDS011;4615;51.340;8.288;2024-01-15T03:57:04;12.13;;;8.30;;
9160;SDS011;4615;51.340;8.288;2024-01-15T03:59:30;12.60;;;7.95;;
9160;SDS011;4615;51.340;8.288;2024-01-15T04:01:56;14.13;;;8.38;;
9160;SDS011;4615;51.340;8.288;2024-01-15T04:04:23;14.68;;;8.20;;
9160;SDS011;4615;51.340;8.288;2024-01-15T04:06:51;13.23;;;7.90;;
9160;SDS011;4615;51.340;8.288;2024-01-15T04:09:17;11.57;;;7.80;;
9160;SDS011;4615;51.340;8.288;2024-01-15T04:11:43;13.37;;;7.90;;
9160;SDS011;4615;51.340;8.288;2024-01-15T04:14:10;12.60;;;8.15;;
9160;SDS011;4615;51.340;8.288;2024-01-15T04:16:37;11.95;;;7.90;;
9160;SDS011;4615;51.340;8.288;2024-01-15T04:19:03;12.05;;;7.80;;
9160;SDS011;4615;51.340;8.288;2024-01-15T04:21:29;13.38;;;8.63;;
9160;SDS011;4615;51.340;8.288;2024-01-15T04:23:57;11.80;;;8.00;;
9160;SDS011;4615;51.340;8.288;2024-01-15T04:26:23;13.05;;;8.02;;
9160;SDS011;4615;51.340;8.288;2024-01-15T04:28:50;12.32;;;8.27;;
9160;SDS011;4615;51.340;8.288;2024-01-15T04:31:22;14.48;;;8.65;;
9160;SDS011;4615;51.340;8.288;2024-01-15T04:33:49;13.13;;;8.98;;
9160;SDS011;4615;51.340;8.288;2024-01-15T04:36:15;15.25;;;9.40;;
9160;SDS011;4615;51.340;8.288;2024-01-15T04:38:41;14.02;;;8.48;;
9160;SDS011;4615;51.340;8.288;2024-01-15T04:41:10;14.27;;;8.50;;
9160;SDS011;4615;51.340;8.288;2024-01-15T04:43:37;12.27;;;7.82;;
9160;SDS011;4615;51.340;8.288;2024-01-15T04:46:05;11.30;;;7.85;;
9160;SDS011;4615;51.340;8.288;2024-01-15T04:48:31;12.13;;;8.20;;
9160;SDS011;4615;51.340;8.288;2024-01-15T04:50:57;11.75;;;8.20;;
9160;SDS011;4615;51.340;8.288;2024-01-15T04:53:24;13.00;;;8.32;;
9160;SDS011;4615;51.340;8.288;2024-01-15T04:55:51;11.83;;;7.97;;
9160;SDS011;4615;51.340;8.288;2024-01-15T04:58:18;14.00;;;7.55;;
9160;SDS011;4615;51.340;8.288;2024-01-15T05:00:45;10.47;;;6.97;;
9160;SDS011;4615;51.340;8.288;2024-01-15T05:03:11;12.38;;;7.35;;
9160;SDS011;4615;51.340;8.288;2024-01-15T05:05:38;12.52;;;7.10;;
9160;SDS011;4615;51.340;8.288;2024-01-15T05:08:04;11.15;;;7.07;;
9160;SDS011;4615;51.340;8.288;2024-01-15T05:10:31;11.50;;;7.10;;
9160;SDS011;4615;51.340;8.288;2024-01-15T05:12:57;10.75;;;7.25;;
9160;SDS011;4615;51.340;8.288;2024-01-15T05:15:25;13.73;;;7.57;;
9160;SDS011;4615;51.340;8.288;2024-01-15T05:17:51;11.50;;;7.70;;
9160;SDS011;4615;51.340;8.288;2024-01-15T05:20:18;12.35;;;7.60;;
9160;SDS011;4615;51.340;8.288;2024-01-15T05:22:44;11.85;;;7.70;;
9160;SDS011;4615;51.340;8.288;2024-01-15T05:25:10;11.55;;;7.70;;
9160;SDS011;4615;51.340;8.288;2024-01-15T05:27:37;12.32;;;7.43;;
9160;SDS011;4615;51.340;8.288;2024-01-15T05:30:03;14.57;;;8.32;;
9160;SDS011;4615;51.340;8.288;2024-01-15T05:32:33;12.95;;;7.38;;
9160;SDS011;4615;51.340;8.288;2024-01-15T05:34:59;11.18;;;7.45;;
9160;SDS011;4615;51.340;8.288;2024-01-15T05:37:26;11.10;;;7.30;;
9160;SDS011;4615;51.340;8.288;2024-01-15T05:39:52;11.77;;;7.60;;
9160;SDS011;4615;51.340;8.288;2024-01-15T05:42:18;11.80;;;7.50;;
9160;SDS011;4615;51.340;8.288;2024-01-15T05:44:45;12.18;;;7.30;;
9160;SDS011;4615;51.340;8.288;2024-01-15T05:47:11;12.57;;;7.72;;
9160;SDS011;4615;51.340;8.288;2024-01-15T05:49:39;11.57;;;7.95;;
9160;SDS011;4615;51.340;8.288;2024-01-15T05:52:05;11.30;;;7.20;;
9160;SDS011;4615;51.340;8.288;2024-01-15T05:54:31;10.93;;;7.43;;
9160;SDS011;4615;51.340;8.288;2024-01-15T05:56:58;10.75;;;7.15;;
9160;SDS011;4615;51.340;8.288;2024-01-15T05:59:24;11.95;;;7.03;;
9160;SDS011;4615;51.340;8.288;2024-01-15T06:01:51;9.80;;;6.63;;
9160;SDS011;4615;51.340;8.288;2024-01-15T06:04:17;12.15;;;7.07;;
9160;SDS011;4615;51.340;8.288;2024-01-15T06:06:45;11.95;;;6.65;;
9160;SDS011;4615;51.340;8.288;2024-01-15T06:09:11;10.40;;;6.95;;
9160;SDS011;4615;51.340;8.288;2024-01-15T06:11:37;11.73;;;7.38;;
9160;SDS011;4615;51.340;8.288;2024-01-15T06:14:04;13.20;;;7.03;;
9160;SDS011;4615;51.340;8.288;2024-01-15T06:16:30;13.18;;;7.72;;
9160;SDS011;4615;51.340;8.288;2024-01-15T06:18:57;11.43;;;7.40;;
9160;SDS011;4615;51.340;8.288;2024-01-15T06:21:23;11.88;;;7.22;;
9160;SDS011;4615;51.340;8.288;2024-01-15T06:23:51;11.70;;;7.40;;
9160;SDS011;4615;51.340;8.288;2024-01-15T06:26:17;12.27;;;7.63;;
9160;SDS011;4615;51.340;8.288;2024-01-15T06:28:44;12.60;;;8.37;;
9160;SDS011;4615;51.340;8.288;2024-01-15T06:31:10;13.88;;;7.63;;
9160;SDS011;4615;51.340;8.288;2024-01-15T06:33:36;12.50;;;7.40;;
9160;SDS011;4615;51.340;8.288;2024-01-15T06:36:03;12.43;;;7.83;;
9160;SDS011;4615;51.340;8.288;2024-01-15T06:38:30;11.27;;;7.32;;
9160;SDS011;4615;51.340;8.288;2024-01-15T06:40:58;13.38;;;8.10;;
9160;SDS011;4615;51.340;8.288;2024-01-15T06:43:24;11.30;;;7.38;;
9160;SDS011;4615;51.340;8.288;2024-01-15T06:45:50;10.90;;;7.45;;
9160;SDS011;4615;51.340;8.288;2024-01-15T06:48:17;15.80;;;8.33;;
9160;SDS011;4615;51.340;8.288;2024-01-15T06:50:43;10.85;;;7.40;;
9160;SDS011;4615;51.340;8.288;2024-01-15T06:53:10;11.18;;;7.72;;
9160;SDS011;4615;51.340;8.288;2024-01-15T06:55:36;12.38;;;7.50;;
9160;SDS011;4615;51.340;8.288;2024-01-15T06:58:04;11.40;;;7.30;;
9160;SDS011;4615;51.340;8.288;2024-01-15T07:00:30;11.18;;;6.80;;
9160;SDS011;4615;51.340;8.288;2024-01-15T07:02:57;9.85;;;6.50;;
9160;SDS011;4615;51.340;8.288;2024-01-15T07:05:23;9.68;;;6.68;;
9160;SDS011;4615;51.340;8.288;2024-01-15T07:07:49;10.52;;;7.32;;
9160;SDS011;4615;51.340;8.288;2024-01-15T07:10:16;10.27;;;6.93;;
9160;SDS011;4615;51.340;8.288;2024-01-15T07:12:42;9.07;;;7.03;;
9160;SDS011;4615;51.340;8.288;2024-01-15T07:15:10;8.55;;;7.22;;
9160;SDS011;4615;51.340;8.288;2024-01-15T07:17:37;10.40;;;6.65;;
9160;SDS011;4615;51.340;8.288;2024-01-15T07:20:05;7.70;;;6.35;;
9160;SDS011;4615;51.340;8.288;2024-01-15T07:22:32;9.07;;;6.10;;
9160;SDS011;4615;51.340;8.288;2024-01-15T07:24:59;8.00;;;5.93;;
9160;SDS011;4615;51.340;8.288;2024-01-15T07:27:25;7.53;;;5.80;;
9160;SDS011;4615;51.340;8.288;2024-01-15T07:29:52;8.20;;;5.88;;
9160;SDS011;4615;51.340;8.288;2024-01-15T07:32:19;8.85;;;5.70;;
9160;SDS011;4615;51.340;8.288;2024-01-15T07:34:46;6.90;;;5.55;;
9160;SDS011;4615;51.340;8.288;2024-01-15T07:37:13;7.33;;;5.70;;
9160;SDS011;4615;51.340;8.288;2024-01-15T07:39:39;6.93;;;5.30;;
9160;SDS011;4615;51.340;8.288;2024-01-15T07:42:05;8.25;;;5.82;;
9160;SDS011;4615;51.340;8.288;2024-01-15T07:44:32;6.18;;;5.40;;
9160;SDS011;4615;51.340;8.288;2024-01-15T07:46:58;6.93;;;5.50;;
9160;SDS011;4615;51.340;8.288;2024-01-15T07:49:26;7.80;;;5.35;;
9160;SDS011;4615;51.340;8.288;2024-01-15T07:51:52;6.47;;;5.37;;
9160;SDS011;4615;51.340;8.288;2024-01-15T07:54:19;7.43;;;5.30;;
9160;SDS011;4615;51.340;8.288;2024-01-15T07:56:54;7.82;;;5.47;;
9160;SDS011;4615;51.340;8.288;2024-01-15T07:59:20;8.27;;;5.47;;
9160;SDS011;4615;51.340;8.288;2024-01-15T08:01:47;8.17;;;5.27;;
9160;SDS011;4615;51.340;8.288;2024-01-15T08:04:13;7.13;;;5.20;;
9160;SDS011;4615;51.340;8.288;2024-01-15T08:06:41;8.68;;;5.45;;
9160;SDS011;4615;51.340;8.288;2024-01-15T08:09:07;9.40;;;5.25;;
9160;SDS011;4615;51.340;8.288;2024-01-15T08:11:34;7.85;;;5.53;;
9160;SDS011;4615;51.340;8.288;2024-01-15T08:14:00;6.38;;;4.78;;
9160;SDS011;4615;51.340;8.288;2024-01-15T08:16:27;7.53;;;5.00;;
9160;SDS011;4615;51.340;8.288;2024-01-15T08:18:53;5.55;;;4.30;;
9160;SDS011;4615;51.340;8.288;2024-01-15T08:21:19;5.55;;;4.40;;
9160;SDS011;4615;51.340;8.288;2024-01-15T08:23:47;5.68;;;4.40;;
9160;SDS011;4615;51.340;8.288;2024-01-15T08:26:13;5.25;;;4.30;;
9160;SDS011;4615;51.340;8.288;2024-01-15T08:28:40;4.87;;;3.70;;
9160;SDS011;4615;51.340;8.288;2024-01-15T08:31:07;3.80;;;3.40;;
9160;SDS011;4615;51.340;8.288;2024-01-15T08:33:34;4.20;;;3.80;;
9160;SDS011;4615;51.340;8.288;2024-01-15T08:36:01;4.10;;;3.63;;
9160;SDS011;4615;51.340;8.288;2024-01-15T08:38:27;4.97;;;3.87;;
9160;SDS011;4615;51.340;8.288;2024-01-15T08:40:55;4.78;;;3.80;;
9160;SDS011;4615;51.340;8.288;2024-01-15T08:43:24;5.60;;;3.60;;
9160;SDS011;4615;51.340;8.288;2024-01-15T08:45:50;4.32;;;3.65;;
9160;SDS011;4615;51.340;8.288;2024-01-15T08:48:17;3.90;;;3.50;;
9160;SDS011;4615;51.340;8.288;2024-01-15T08:50:43;4.60;;;3.60;;
9160;SDS011;4615;51.340;8.288;2024-01-15T08:53:11;4.30;;;3.70;;
9160;SDS011;4615;51.340;8.288;2024-01-15T08:55:37;5.63;;;4.05;;
9160;SDS011;4615;51.340;8.288;2024-01-15T08:58:05;5.57;;;4.27;;
9160;SDS011;4615;51.340;8.288;2024-01-15T09:00:32;4.97;;;4.47;;
9160;SDS011;4615;51.340;8.288;2024-01-15T09:02:58;5.97;;;4.63;;
9160;SDS011;4615;51.340;8.288;2024-01-15T09:05:25;6.25;;;5.25;;
9160;SDS011;4615;51.340;8.288;2024-01-15T09:07:51;7.45;;;5.57;;
9160;SDS011;4615;51.340;8.288;2024-01-15T09:10:18;7.50;;;6.20;;
9160;SDS011;4615;51.340;8.288;2024-01-15T09:12:45;6.82;;;6.13;;
9160;SDS011;4615;51.340;8.288;2024-01-15T09:15:13;7.50;;;5.95;;
9160;SDS011;4615;51.340;8.288;2024-01-15T09:17:39;6.25;;;5.53;;
9160;SDS011;4615;51.340;8.288;2024-01-15T09:20:06;6.80;;;5.60;;
9160;SDS011;4615;51.340;8.288;2024-01-15T09:22:32;6.40;;;5.28;;
9160;SDS011;4615;51.340;8.288;2024-01-15T09:24:59;5.07;;;4.60;;
9160;SDS011;4615;51.340;8.288;2024-01-15T09:27:25;5.35;;;4.70;;
9160;SDS011;4615;51.340;8.288;2024-01-15T09:29:52;5.13;;;4.60;;
9160;SDS011;4615;51.340;8.288;2024-01-15T09:32:20;5.18;;;4.68;;
9160;SDS011;4615;51.340;8.288;2024-01-15T09:34:46;4.90;;;4.40;;
9160;SDS011;4615;51.340;8.288;2024-01-15T09:37:13;4.78;;;4.35;;
9160;SDS011;4615;51.340;8.288;2024-01-15T09:39:40;4.00;;;3.67;;
9160;SDS011;4615;51.340;8.288;2024-01-15T09:42:06;4.65;;;4.15;;
9160;SDS011;4615;51.340;8.288;2024-01-15T09:44:33;3.83;;;3.53;;
9160;SDS011;4615;51.340;8.288;2024-01-15T09:46:59;3.92;;;3.63;;
9160;SDS011;4615;51.340;8.288;2024-01-15T09:49:27;3.80;;;3.47;;
9160;SDS011;4615;51.340;8.288;2024-01-15T09:51:55;3.42;;;3.13;;
9160;SDS011;4615;51.340;8.288;2024-01-15T09:54:22;3.50;;;3.20;;
9160;SDS011;4615;51.340;8.288;2024-01-15T09:56:49;3.33;;;3.03;;
9160;SDS011;4615;51.340;8.288;2024-01-15T09:59:15;3.17;;;2.92;;
9160;SDS011;4615;51.340;8.288;2024-01-15T10:01:42;2.90;;;2.70;;
9160;SDS011;4615;51.340;8.288;2024-01-15T10:04:10;3.13;;;2.83;;
9160;SDS011;4615;51.340;8.288;2024-01-15T10:06:39;3.30;;;3.00;;
9160;SDS011;4615;51.340;8.288;2024-01-15T10:09:05;3.70;;;3.40;;
9160;SDS011;4615;51.340;8.288;2024-01-15T10:11:33;3.65;;;3.35;;
9160;SDS011;4615;51.340;8.288;2024-01-15T10:13:59;4.28;;;3.88;;
9160;SDS011;4615;51.340;8.288;2024-01-15T10:16:25;4.20;;;3.80;;
9160;SDS011;4615;51.340;8.288;2024-01-15T10:18:52;3.97;;;3.60;;
9160;SDS011;4615;51.340;8.288;2024-01-15T10:21:18;4.22;;;3.90;;
9160;SDS011;4615;51.340;8.288;2024-01-15T10:23:46;4.23;;;3.83;;
9160;SDS011;4615;51.340;8.288;2024-01-15T10:26:12;4.50;;;4.20;;
9160;SDS011;4615;51.340;8.288;2024-01-15T10:28:39;4.70;;;4.30;;
9160;SDS011;4615;51.340;8.288;2024-01-15T10:31:06;4.07;;;3.78;;
9160;SDS011;4615;51.340;8.288;2024-01-15T10:33:32;4.43;;;4.03;;
9160;SDS011;4615;51.340;8.288;2024-01-15T10:35:59;4.67;;;4.10;;
9160;SDS011;4615;51.340;8.288;2024-01-15T10:38:26;4.50;;;4.10;;
9160;SDS011;4615;51.340;8.288;2024-01-15T10:40:54;4.20;;;3.90;;
9160;SDS011;4615;51.340;8.288;2024-01-15T10:43:21;4.20;;;3.90;;
9160;SDS011;4615;51.340;8.288;2024-01-15T10:45:48;4.10;;;3.80;;
9160;SDS011;4615;51.340;8.288;2024-01-15T10:48:15;4.50;;;4.10;;
9160;SDS011;4615;51.340;8.288;2024-01-15T10:50:42;4.57;;;4.18;;
9160;SDS011;4615;51.340;8.288;2024-01-15T10:53:09;3.95;;;3.65;;
9160;SDS011;4615;51.340;8.288;2024-01-15T10:55:37;4.10;;;3.70;;
9160;SDS011;4615;51.340;8.288;2024-01-15T10:58:05;4.38;;;4.03;;
9160;SDS011;4615;51.340;8.288;2024-01-15T11:00:33;4.35;;;4.00;;
9160;SDS011;4615;51.340;8.288;2024-01-15T11:03:00;4.27;;;3.90;;
9160;SDS011;4615;51.340;8.288;2024-01-15T11:05:27;5.05;;;4.32;;
9160;SDS011;4615;51.340;8.288;2024-01-15T11:07:54;4.40;;;4.00;;
9160;SDS011;4615;51.340;8.288;2024-01-15T11:10:40;3.70;;;3.40;;
9160;SDS011;4615;51.340;8.288;2024-01-15T11:13:13;3.80;;;3.25;;
9160;SDS011;4615;51.340;8.288;2024-01-15T11:15:55;2.83;;;2.45;;
9160;SDS011;4615;51.340;8.288;2024-01-15T11:18:22;2.65;;;2.42;;
9160;SDS011;4615;51.340;8.288;2024-01-15T11:23:42;3.10;;;2.80;;
9160;SDS011;4615;51.340;8.288;2024-01-15T11:26:20;2.65;;;2.45;;
9160;SDS011;4615;51.340;8.288;2024-01-15T11:28:54;2.47;;;2.20;;
9160;SDS011;4615;51.340;8.288;2024-01-15T11:31:21;2.90;;;2.30;;
9160;SDS011;4615;51.340;8.288;2024-01-15T11:33:51;3.40;;;2.40;;
9160;SDS011;4615;51.340;8.288;2024-01-15T11:36:18;3.33;;;2.20;;
9160;SDS011;4615;51.340;8.288;2024-01-15T11:38:44;2.40;;;2.17;;
9160;SDS011;4615;51.340;8.288;2024-01-15T11:41:13;2.55;;;1.90;;
9160;SDS011;4615;51.340;8.288;2024-01-15T11:43:40;2.58;;;1.90;;
9160;SDS011;4615;51.340;8.288;2024-01-15T11:46:10;2.65;;;1.90;;
9160;SDS011;4615;51.340;8.288;2024-01-15T11:48:41;3.67;;;2.45;;
9160;SDS011;4615;51.340;8.288;2024-01-15T11:51:08;2.85;;;2.00;;
9160;SDS011;4615;51.340;8.288;2024-01-15T11:53:38;3.30;;;2.20;;
9160;SDS011;4615;51.340;8.288;2024-01-15T11:56:14;3.00;;;2.20;;
9160;SDS011;4615;51.340;8.288;2024-01-15T11:58:41;2.67;;;2.00;;
9160;SDS011;4615;51.340;8.288;2024-01-15T12:01:07;3.28;;;2.15;;
9160;SDS011;4615;51.340;8.288;2024-01-15T12:03:35;2.37;;;1.83;;
9160;SDS011;4615;51.340;8.288;2024-01-15T12:06:01;2.73;;;2.17;;
9160;SDS011;4615;51.340;8.288;2024-01-15T12:08:28;2.95;;;2.20;;
9160;SDS011;4615;51.340;8.288;2024-01-15T12:10:54;3.33;;;2.15;;
9160;SDS011;4615;51.340;8.288;2024-01-15T12:13:21;2.67;;;2.03;;
9160;SDS011;4615;51.340;8.288;2024-01-15T12:15:48;2.08;;;1.83;;
9160;SDS011;4615;51.340;8.288;2024-01-15T12:18:15;3.35;;;2.20;;
9160;SDS011;4615;51.340;8.288;2024-01-15T12:20:44;3.55;;;2.25;;
9160;SDS011;4615;51.340;8.288;2024-01-15T12:23:11;2.50;;;2.03;;
9160;SDS011;4615;51.340;8.288;2024-01-15T12:25:38;3.00;;;2.13;;
9160;SDS011;4615;51.340;8.288;2024-01-15T12:28:05;2.50;;;2.30;;
9160;SDS011;4615;51.340;8.288;2024-01-15T12:30:33;3.05;;;2.30;;
9160;SDS011;4615;51.340;8.288;2024-01-15T12:33:00;3.53;;;2.30;;
9160;SDS011;4615;51.340;8.288;2024-01-15T12:35:27;3.85;;;2.50;;
9160;SDS011;4615;51.340;8.288;2024-01-15T12:37:56;4.47;;;2.38;;
9160;SDS011;4615;51.340;8.288;2024-01-15T12:40:23;4.40;;;2.33;;
9160;SDS011;4615;51.340;8.288;2024-01-15T12:42:49;4.88;;;2.70;;
9160;SDS011;4615;51.340;8.288;2024-01-15T12:45:15;3.65;;;2.38;;
9160;SDS011;4615;51.340;8.288;2024-01-15T12:47:42;5.65;;;2.80;;
9160;SDS011;4615;51.340;8.288;2024-01-15T12:50:09;3.88;;;2.80;;
9160;SDS011;4615;51.340;8.288;2024-01-15T12:52:35;4.43;;;3.20;;
9160;SDS011;4615;51.340;8.288;2024-01-15T12:55:04;4.05;;;2.90;;
9160;SDS011;4615;51.340;8.288;2024-01-15T12:57:31;4.43;;;3.10;;
9160;SDS011;4615;51.340;8.288;2024-01-15T12:59:57;5.07;;;3.10;;
9160;SDS011;4615;51.340;8.288;2024-01-15T13:02:24;7.85;;;3.40;;
9160;SDS011;4615;51.340;8.288;2024-01-15T13:04:50;5.07;;;3.25;;
9160;SDS011;4615;51.340;8.288;2024-01-15T13:07:17;4.80;;;3.30;;
9160;SDS011;4615;51.340;8.288;2024-01-15T13:09:43;6.40;;;3.20;;
9160;SDS011;4615;51.340;8.288;2024-01-15T13:12:11;5.20;;;3.50;;
9160;SDS011;4615;51.340;8.288;2024-01-15T13:14:37;5.07;;;3.13;;
9160;SDS011;4615;51.340;8.288;2024-01-15T13:17:05;5.63;;;3.35;;
9160;SDS011;4615;51.340;8.288;2024-01-15T13:19:32;4.63;;;3.13;;
9160;SDS011;4615;51.340;8.288;2024-01-15T13:21:59;4.20;;;3.30;;
9160;SDS011;4615;51.340;8.288;2024-01-15T13:24:25;5.72;;;3.40;;
9160;SDS011;4615;51.340;8.288;2024-01-15T13:26:51;5.90;;;3.20;;
9160;SDS011;4615;51.340;8.288;2024-01-15T13:29:19;5.15;;;3.25;;
9160;SDS011;4615;51.340;8.288;2024-01-15T13:31:46;4.22;;;3.00;;
9160;SDS011;4615;51.340;8.288;2024-01-15T13:34:12;5.03;;;3.10;;
9160;SDS011;4615;51.340;8.288;2024-01-15T13:36:39;5.55;;;3.38;;
9160;SDS011;4615;51.340;8.288;2024-01-15T13:39:06;6.13;;;3.17;;
9160;SDS011;4615;51.340;8.288;2024-01-15T13:41:34;5.07;;;3.10;;
9160;SDS011;4615;51.340;8.288;2024-01-15T13:44:00;5.47;;;3.23;;
9160;SDS011;4615;51.340;8.288;2024-01-15T13:46:28;4.28;;;3.10;;
9160;SDS011;4615;51.340;8.288;2024-01-15T13:48:55;6.25;;;3.63;;
9160;SDS011;4615;51.340;8.288;2024-01-15T13:51:21;5.88;;;3.40;;
9160;SDS011;4615;51.340;8.288;2024-01-15T13:53:48;5.38;;;3.80;;
9160;SDS011;4615;51.340;8.288;2024-01-15T13:56:15;4.80;;;3.60;;
9160;SDS011;4615;51.340;8.288;2024-01-15T13:58:41;5.47;;;3.70;;
9160;SDS011;4615;51.340;8.288;2024-01-15T14:01:08;4.63;;;3.85;;
9160;SDS011;4615;51.340;8.288;2024-01-15T14:03:37;6.07;;;3.92;;
9160;SDS011;4615;51.340;8.288;2024-01-15T14:06:03;6.22;;;4.38;;
9160;SDS011;4615;51.340;8.288;2024-01-15T14:08:33;5.43;;;4.30;;
9160;SDS011;4615;51.340;8.288;2024-01-15T14:11:00;5.28;;;4.13;;
9160;SDS011;4615;51.340;8.288;2024-01-15T14:13:26;5.50;;;3.92;;
9160;SDS011;4615;51.340;8.288;2024-01-15T14:15:52;4.82;;;4.10;;
9160;SDS011;4615;51.340;8.288;2024-01-15T14:18:19;6.90;;;3.77;;
9160;SDS011;4615;51.340;8.288;2024-01-15T14:20:46;5.57;;;3.35;;
9160;SDS011;4615;51.340;8.288;2024-01-15T14:23:13;6.03;;;3.80;;
9160;SDS011;4615;51.340;8.288;2024-01-15T14:25:39;5.28;;;3.70;;
9160;SDS011;4615;51.340;8.288;2024-01-15T14:28:05;4.20;;;3.60;;
9160;SDS011;4615;51.340;8.288;2024-01-15T14:30:32;4.20;;;3.60;;
9160;SDS011;4615;51.340;8.288;2024-01-15T14:32:58;6.97;;;4.18;;
9160;SDS011;4615;51.340;8.288;2024-01-15T14:35:25;4.97;;;3.60;;
9160;SDS011;4615;51.340;8.288;2024-01-15T14:37:52;5.53;;;3.38;;
9160;SDS011;4615;51.340;8.288;2024-01-15T14:40:19;4.65;;;3.17;;
9160;SDS011;4615;51.340;8.288;2024-01-15T14:42:45;5.53;;;3.50;;
9160;SDS011;4615;51.340;8.288;2024-01-15T14:45:11;4.85;;;3.53;;
9160;SDS011;4615;51.340;8.288;2024-01-15T14:47:38;6.05;;;4.90;;
9160;SDS011;4615;51.340;8.288;2024-01-15T14:50:05;4.22;;;3.80;;
9160;SDS011;4615;51.340;8.288;2024-01-15T14:52:31;5.50;;;4.03;;
9160;SDS011;4615;51.340;8.288;2024-01-15T14:55:02;4.15;;;3.75;;
9160;SDS011;4615;51.340;8.288;2024-01-15T14:57:29;5.82;;;3.90;;
9160;SDS011;4615;51.340;8.288;2024-01-15T14:59:55;5.20;;;3.80;;
9160;SDS011;4615;51.340;8.288;2024-01-15T15:02:22;4.55;;;3.70;;
9160;SDS011;4615;51.340;8.288;2024-01-15T15:04:51;4.55;;;4.00;;
9160;SDS011;4615;51.340;8.288;2024-01-15T15:07:17;5.82;;;4.30;;
9160;SDS011;4615;51.340;8.288;2024-01-15T15:09:44;4.55;;;4.10;;